Florencio Varela, Argentina
Current Conditions -  °F | °C
As of 8:00 PM on Tuesday 27 Jan 2015 (Local Time) from SAEZ Reporting Station
Overcast Overcast  
Wind Chill: 88°   Ceiling: 10000
Heat Index: 89°   Visibility: 6mi
Dew Point: 64°   Wind: 9mph
Humidity: 46%   Direction: 70°ENE
Pressure: 29.68"   Gusts: NA
Location:  34.82°S, 58.28°W
Report Text: SAEZ 272300Z 07008KT 9999 FEW040TCU OVC100 31/18 Q1005
Loading
Personal Weather Stations






























Interactive Weather Map New forecast layout! Learn more

10-Day Weather Forecast

Advertisements
Track Severe Weather on mobile